sensor_id;sensor_type;location;lat;lon;timestamp;P1;durP1;ratioP1;P2;durP2;ratioP2
51523;SDS011;37610;51.790;21.590;2022-12-07T00:02:07;53.40;;;20.70;;
51523;SDS011;37610;51.790;21.590;2022-12-07T00:06:09;50.50;;;23.70;;
51523;SDS011;37610;51.790;21.590;2022-12-07T00:10:12;39.90;;;19.00;;
51523;SDS011;37610;51.790;21.590;2022-12-07T00:14:15;40.00;;;19.70;;
51523;SDS011;37610;51.790;21.590;2022-12-07T00:18:17;39.50;;;18.50;;
51523;SDS011;37610;51.790;21.590;2022-12-07T00:22:18;30.50;;;16.80;;
51523;SDS011;37610;51.790;21.590;2022-12-07T00:26:21;35.80;;;19.50;;
51523;SDS011;37610;51.790;21.590;2022-12-07T00:30:25;30.30;;;18.60;;
51523;SDS011;37610;51.790;21.590;2022-12-07T00:34:26;30.80;;;16.60;;
51523;SDS011;37610;51.790;21.590;2022-12-07T00:38:29;32.30;;;17.70;;
51523;SDS011;37610;51.790;21.590;2022-12-07T00:42:32;33.20;;;16.30;;
51523;SDS011;37610;51.790;21.590;2022-12-07T00:46:33;31.30;;;14.60;;
51523;SDS011;37610;51.790;21.590;2022-12-07T00:50:35;34.10;;;17.10;;
51523;SDS011;37610;51.790;21.590;2022-12-07T00:54:36;32.70;;;15.20;;
51523;SDS011;37610;51.790;21.590;2022-12-07T00:58:38;25.50;;;13.70;;
51523;SDS011;37610;51.790;21.590;2022-12-07T01:02:39;27.00;;;16.00;;
51523;SDS011;37610;51.790;21.590;2022-12-07T01:06:41;25.80;;;14.40;;
51523;SDS011;37610;51.790;21.590;2022-12-07T01:10:42;26.40;;;14.50;;
51523;SDS011;37610;51.790;21.590;2022-12-07T01:14:44;29.00;;;13.70;;
51523;SDS011;37610;51.790;21.590;2022-12-07T01:18:46;26.30;;;14.10;;
51523;SDS011;37610;51.790;21.590;2022-12-07T01:22:50;26.20;;;13.90;;
51523;SDS011;37610;51.790;21.590;2022-12-07T01:26:51;22.90;;;12.00;;
51523;SDS011;37610;51.790;21.590;2022-12-07T01:30:59;25.50;;;11.80;;
51523;SDS011;37610;51.790;21.590;2022-12-07T01:35:03;23.10;;;12.70;;
51523;SDS011;37610;51.790;21.590;2022-12-07T01:39:06;30.10;;;14.90;;
51523;SDS011;37610;51.790;21.590;2022-12-07T01:43:17;22.00;;;11.20;;
51523;SDS011;37610;51.790;21.590;2022-12-07T01:47:20;19.50;;;9.70;;
51523;SDS011;37610;51.790;21.590;2022-12-07T01:51:21;19.20;;;10.50;;
51523;SDS011;37610;51.790;21.590;2022-12-07T01:55:23;16.40;;;9.80;;
51523;SDS011;37610;51.790;21.590;2022-12-07T01:59:25;14.20;;;8.50;;
51523;SDS011;37610;51.790;21.590;2022-12-07T02:03:29;17.00;;;8.60;;
51523;SDS011;37610;51.790;21.590;2022-12-07T02:07:36;15.20;;;8.20;;
51523;SDS011;37610;51.790;21.590;2022-12-07T02:11:39;11.70;;;7.20;;
51523;SDS011;37610;51.790;21.590;2022-12-07T02:24:25;12.40;;;6.80;;
51523;SDS011;37610;51.790;21.590;2022-12-07T02:29:00;27.20;;;11.60;;
51523;SDS011;37610;51.790;21.590;2022-12-07T02:33:06;13.10;;;6.10;;
51523;SDS011;37610;51.790;21.590;2022-12-07T02:37:19;13.40;;;6.40;;
51523;SDS011;37610;51.790;21.590;2022-12-07T02:41:38;11.30;;;6.20;;
51523;SDS011;37610;51.790;21.590;2022-12-07T02:45:44;9.80;;;5.90;;
51523;SDS011;37610;51.790;21.590;2022-12-07T02:49:48;13.30;;;6.00;;
51523;SDS011;37610;51.790;21.590;2022-12-07T02:53:50;12.30;;;6.90;;
51523;SDS011;37610;51.790;21.590;2022-12-07T03:06:49;12.10;;;6.30;;
51523;SDS011;37610;51.790;21.590;2022-12-07T03:19:41;11.90;;;7.90;;
51523;SDS011;37610;51.790;21.590;2022-12-07T03:23:47;14.50;;;7.60;;
51523;SDS011;37610;51.790;21.590;2022-12-07T03:27:54;11.80;;;7.30;;
51523;SDS011;37610;51.790;21.590;2022-12-07T03:32:07;12.20;;;7.10;;
51523;SDS011;37610;51.790;21.590;2022-12-07T03:36:16;13.70;;;6.60;;
51523;SDS011;37610;51.790;21.590;2022-12-07T03:40:37;12.10;;;7.60;;
51523;SDS011;37610;51.790;21.590;2022-12-07T03:44:46;11.80;;;7.50;;
51523;SDS011;37610;51.790;21.590;2022-12-07T03:53:20;14.90;;;8.10;;
51523;SDS011;37610;51.790;21.590;2022-12-07T03:57:30;15.10;;;8.90;;
51523;SDS011;37610;51.790;21.590;2022-12-07T04:01:34;14.30;;;8.70;;
51523;SDS011;37610;51.790;21.590;2022-12-07T04:05:36;15.40;;;8.80;;
51523;SDS011;37610;51.790;21.590;2022-12-07T04:09:38;14.30;;;8.90;;
51523;SDS011;37610;51.790;21.590;2022-12-07T04:13:40;15.70;;;9.80;;
51523;SDS011;37610;51.790;21.590;2022-12-07T04:18:00;18.80;;;9.80;;
51523;SDS011;37610;51.790;21.590;2022-12-07T04:22:03;19.20;;;10.70;;
51523;SDS011;37610;51.790;21.590;2022-12-07T04:26:05;16.40;;;9.90;;
51523;SDS011;37610;51.790;21.590;2022-12-07T04:30:07;14.90;;;9.70;;
51523;SDS011;37610;51.790;21.590;2022-12-07T04:34:09;17.90;;;10.80;;
51523;SDS011;37610;51.790;21.590;2022-12-07T04:38:12;21.30;;;11.90;;
51523;SDS011;37610;51.790;21.590;2022-12-07T04:42:13;17.40;;;10.90;;
51523;SDS011;37610;51.790;21.590;2022-12-07T04:46:15;18.90;;;11.60;;
51523;SDS011;37610;51.790;21.590;2022-12-07T04:50:16;15.10;;;9.80;;
51523;SDS011;37610;51.790;21.590;2022-12-07T04:54:18;23.50;;;11.20;;
51523;SDS011;37610;51.790;21.590;2022-12-07T04:58:20;19.70;;;10.70;;
51523;SDS011;37610;51.790;21.590;2022-12-07T05:02:22;19.50;;;10.20;;
51523;SDS011;37610;51.790;21.590;2022-12-07T05:06:23;18.00;;;11.40;;
51523;SDS011;37610;51.790;21.590;2022-12-07T05:10:25;20.00;;;11.30;;
51523;SDS011;37610;51.790;21.590;2022-12-07T05:14:26;21.10;;;11.70;;
51523;SDS011;37610;51.790;21.590;2022-12-07T05:18:28;20.10;;;12.10;;
51523;SDS011;37610;51.790;21.590;2022-12-07T05:22:30;20.20;;;11.50;;
51523;SDS011;37610;51.790;21.590;2022-12-07T05:26:31;17.90;;;11.60;;
51523;SDS011;37610;51.790;21.590;2022-12-07T05:30:33;20.60;;;12.00;;
51523;SDS011;37610;51.790;21.590;2022-12-07T05:34:35;20.50;;;12.00;;
51523;SDS011;37610;51.790;21.590;2022-12-07T05:38:36;21.20;;;11.50;;
51523;SDS011;37610;51.790;21.590;2022-12-07T05:42:38;19.70;;;12.00;;
51523;SDS011;37610;51.790;21.590;2022-12-07T05:46:41;17.30;;;10.50;;
51523;SDS011;37610;51.790;21.590;2022-12-07T05:50:42;19.10;;;11.00;;
51523;SDS011;37610;51.790;21.590;2022-12-07T05:54:44;16.70;;;10.60;;
51523;SDS011;37610;51.790;21.590;2022-12-07T05:58:45;15.30;;;9.80;;
51523;SDS011;37610;51.790;21.590;2022-12-07T06:03:05;21.40;;;9.60;;
51523;SDS011;37610;51.790;21.590;2022-12-07T06:07:07;19.40;;;10.30;;
51523;SDS011;37610;51.790;21.590;2022-12-07T06:11:09;17.40;;;10.70;;
51523;SDS011;37610;51.790;21.590;2022-12-07T06:15:37;21.30;;;12.60;;
51523;SDS011;37610;51.790;21.590;2022-12-07T06:19:38;18.70;;;12.20;;
51523;SDS011;37610;51.790;21.590;2022-12-07T06:23:41;21.70;;;12.20;;
51523;SDS011;37610;51.790;21.590;2022-12-07T06:27:42;17.30;;;10.60;;
51523;SDS011;37610;51.790;21.590;2022-12-07T06:31:44;16.00;;;10.10;;
51523;SDS011;37610;51.790;21.590;2022-12-07T06:35:46;16.10;;;9.40;;
51523;SDS011;37610;51.790;21.590;2022-12-07T06:39:47;17.60;;;9.40;;
51523;SDS011;37610;51.790;21.590;2022-12-07T06:43:49;16.40;;;9.20;;
51523;SDS011;37610;51.790;21.590;2022-12-07T06:47:51;17.80;;;9.80;;
51523;SDS011;37610;51.790;21.590;2022-12-07T06:51:53;15.30;;;9.30;;
51523;SDS011;37610;51.790;21.590;2022-12-07T06:55:54;17.80;;;10.80;;
51523;SDS011;37610;51.790;21.590;2022-12-07T06:59:56;16.30;;;9.40;;
51523;SDS011;37610;51.790;21.590;2022-12-07T07:03:57;21.50;;;11.90;;
51523;SDS011;37610;51.790;21.590;2022-12-07T07:07:58;21.40;;;11.20;;
51523;SDS011;37610;51.790;21.590;2022-12-07T07:12:00;15.10;;;9.00;;
51523;SDS011;37610;51.790;21.590;2022-12-07T07:16:02;16.40;;;9.40;;
51523;SDS011;37610;51.790;21.590;2022-12-07T07:20:04;16.10;;;9.80;;
51523;SDS011;37610;51.790;21.590;2022-12-07T07:24:06;16.70;;;10.40;;
51523;SDS011;37610;51.790;21.590;2022-12-07T07:28:08;21.60;;;13.00;;
51523;SDS011;37610;51.790;21.590;2022-12-07T07:32:09;20.30;;;13.00;;
51523;SDS011;37610;51.790;21.590;2022-12-07T07:36:11;17.80;;;11.30;;
51523;SDS011;37610;51.790;21.590;2022-12-07T07:40:12;19.90;;;11.80;;
51523;SDS011;37610;51.790;21.590;2022-12-07T07:44:14;31.50;;;14.40;;
51523;SDS011;37610;51.790;21.590;2022-12-07T07:48:15;31.60;;;13.60;;
51523;SDS011;37610;51.790;21.590;2022-12-07T07:52:17;22.50;;;11.70;;
51523;SDS011;37610;51.790;21.590;2022-12-07T07:56:19;21.30;;;11.90;;
51523;SDS011;37610;51.790;21.590;2022-12-07T08:00:20;18.30;;;11.30;;
51523;SDS011;37610;51.790;21.590;2022-12-07T08:04:23;21.40;;;11.50;;
51523;SDS011;37610;51.790;21.590;2022-12-07T08:08:24;16.70;;;9.60;;
51523;SDS011;37610;51.790;21.590;2022-12-07T08:12:26;18.60;;;10.50;;
51523;SDS011;37610;51.790;21.590;2022-12-07T08:16:28;19.90;;;11.90;;
51523;SDS011;37610;51.790;21.590;2022-12-07T08:20:30;15.70;;;9.20;;
51523;SDS011;37610;51.790;21.590;2022-12-07T08:24:34;17.20;;;8.80;;
51523;SDS011;37610;51.790;21.590;2022-12-07T08:28:36;19.50;;;11.10;;
51523;SDS011;37610;51.790;21.590;2022-12-07T08:32:38;16.10;;;9.70;;
51523;SDS011;37610;51.790;21.590;2022-12-07T08:36:39;18.30;;;10.30;;
51523;SDS011;37610;51.790;21.590;2022-12-07T08:40:41;13.30;;;9.00;;
51523;SDS011;37610;51.790;21.590;2022-12-07T08:44:42;14.00;;;8.60;;
51523;SDS011;37610;51.790;21.590;2022-12-07T08:48:46;17.00;;;11.20;;
51523;SDS011;37610;51.790;21.590;2022-12-07T08:52:59;20.70;;;11.40;;
51523;SDS011;37610;51.790;21.590;2022-12-07T08:57:01;14.70;;;8.70;;
51523;SDS011;37610;51.790;21.590;2022-12-07T09:01:03;15.90;;;8.80;;
51523;SDS011;37610;51.790;21.590;2022-12-07T09:05:05;20.20;;;11.80;;
51523;SDS011;37610;51.790;21.590;2022-12-07T09:09:07;21.60;;;12.10;;
51523;SDS011;37610;51.790;21.590;2022-12-07T09:13:10;15.90;;;9.20;;
51523;SDS011;37610;51.790;21.590;2022-12-07T09:17:12;17.40;;;10.30;;
51523;SDS011;37610;51.790;21.590;2022-12-07T09:21:14;18.40;;;9.70;;
51523;SDS011;37610;51.790;21.590;2022-12-07T09:25:15;18.70;;;11.30;;
51523;SDS011;37610;51.790;21.590;2022-12-07T09:29:17;19.30;;;11.00;;
51523;SDS011;37610;51.790;21.590;2022-12-07T09:33:18;16.70;;;10.50;;
51523;SDS011;37610;51.790;21.590;2022-12-07T09:37:20;16.00;;;9.50;;
51523;SDS011;37610;51.790;21.590;2022-12-07T09:41:22;14.90;;;8.80;;
51523;SDS011;37610;51.790;21.590;2022-12-07T09:45:33;19.30;;;10.60;;
51523;SDS011;37610;51.790;21.590;2022-12-07T09:49:36;17.50;;;10.70;;
51523;SDS011;37610;51.790;21.590;2022-12-07T09:53:38;18.10;;;8.70;;
51523;SDS011;37610;51.790;21.590;2022-12-07T09:57:40;14.30;;;8.50;;
51523;SDS011;37610;51.790;21.590;2022-12-07T10:01:44;14.80;;;8.50;;
51523;SDS011;37610;51.790;21.590;2022-12-07T10:05:49;16.00;;;10.60;;
51523;SDS011;37610;51.790;21.590;2022-12-07T10:09:52;32.80;;;19.20;;
51523;SDS011;37610;51.790;21.590;2022-12-07T10:13:54;29.70;;;20.20;;
51523;SDS011;37610;51.790;21.590;2022-12-07T10:17:55;31.70;;;17.00;;
51523;SDS011;37610;51.790;21.590;2022-12-07T10:26:26;28.70;;;13.50;;
51523;SDS011;37610;51.790;21.590;2022-12-07T10:30:47;19.70;;;12.10;;
51523;SDS011;37610;51.790;21.590;2022-12-07T10:39:20;22.50;;;12.30;;
51523;SDS011;37610;51.790;21.590;2022-12-07T10:43:23;20.70;;;12.70;;
51523;SDS011;37610;51.790;21.590;2022-12-07T11:06:04;26.40;;;13.80;;
51523;SDS011;37610;51.790;21.590;2022-12-07T11:18:27;32.20;;;17.50;;
51523;SDS011;37610;51.790;21.590;2022-12-07T11:39:52;19.50;;;11.80;;
51523;SDS011;37610;51.790;21.590;2022-12-07T11:48:18;17.20;;;10.10;;
51523;SDS011;37610;51.790;21.590;2022-12-07T11:52:56;19.90;;;11.90;;
51523;SDS011;37610;51.790;21.590;2022-12-07T11:57:02;18.10;;;10.70;;
51523;SDS011;37610;51.790;21.590;2022-12-07T12:05:18;25.00;;;13.20;;
51523;SDS011;37610;51.790;21.590;2022-12-07T12:09:31;23.30;;;11.70;;
51523;SDS011;37610;51.790;21.590;2022-12-07T12:22:53;30.10;;;17.90;;
51523;SDS011;37610;51.790;21.590;2022-12-07T12:27:17;23.40;;;14.20;;
51523;SDS011;37610;51.790;21.590;2022-12-07T12:35:36;16.30;;;11.20;;
51523;SDS011;37610;51.790;21.590;2022-12-07T12:39:38;23.10;;;13.00;;
51523;SDS011;37610;51.790;21.590;2022-12-07T12:43:50;20.20;;;11.70;;
51523;SDS011;37610;51.790;21.590;2022-12-07T12:56:05;30.00;;;18.20;;
51523;SDS011;37610;51.790;21.590;2022-12-07T13:00:31;29.10;;;16.20;;
51523;SDS011;37610;51.790;21.590;2022-12-07T13:04:37;19.00;;;11.90;;
51523;SDS011;37610;51.790;21.590;2022-12-07T13:09:00;18.20;;;10.70;;
51523;SDS011;37610;51.790;21.590;2022-12-07T13:17:55;14.90;;;7.70;;
51523;SDS011;37610;51.790;21.590;2022-12-07T13:25:41;18.40;;;9.90;;
51523;SDS011;37610;51.790;21.590;2022-12-07T13:33:50;14.60;;;8.40;;
51523;SDS011;37610;51.790;21.590;2022-12-07T13:37:52;20.70;;;11.40;;
51523;SDS011;37610;51.790;21.590;2022-12-07T13:45:59;22.80;;;11.40;;
51523;SDS011;37610;51.790;21.590;2022-12-07T13:50:15;30.60;;;15.20;;
51523;SDS011;37610;51.790;21.590;2022-12-07T13:54:32;36.80;;;16.90;;
51523;SDS011;37610;51.790;21.590;2022-12-07T13:58:33;27.90;;;11.20;;
51523;SDS011;37610;51.790;21.590;2022-12-07T14:02:35;31.80;;;13.40;;
51523;SDS011;37610;51.790;21.590;2022-12-07T14:06:37;29.60;;;16.60;;
51523;SDS011;37610;51.790;21.590;2022-12-07T14:14:53;26.20;;;14.80;;
51523;SDS011;37610;51.790;21.590;2022-12-07T14:18:57;25.40;;;14.60;;
51523;SDS011;37610;51.790;21.590;2022-12-07T14:23:00;21.60;;;13.80;;
51523;SDS011;37610;51.790;21.590;2022-12-07T14:27:23;25.60;;;14.00;;
51523;SDS011;37610;51.790;21.590;2022-12-07T14:31:26;23.60;;;13.50;;
51523;SDS011;37610;51.790;21.590;2022-12-07T14:35:28;23.00;;;13.10;;
51523;SDS011;37610;51.790;21.590;2022-12-07T14:39:31;25.00;;;15.60;;
51523;SDS011;37610;51.790;21.590;2022-12-07T14:43:32;22.60;;;14.00;;
51523;SDS011;37610;51.790;21.590;2022-12-07T14:47:34;28.80;;;15.70;;
51523;SDS011;37610;51.790;21.590;2022-12-07T14:51:36;32.30;;;16.60;;
51523;SDS011;37610;51.790;21.590;2022-12-07T14:55:40;29.80;;;15.50;;
51523;SDS011;37610;51.790;21.590;2022-12-07T14:59:42;33.30;;;20.40;;
51523;SDS011;37610;51.790;21.590;2022-12-07T15:03:43;33.20;;;17.00;;
51523;SDS011;37610;51.790;21.590;2022-12-07T15:07:45;52.40;;;24.30;;
51523;SDS011;37610;51.790;21.590;2022-12-07T15:11:48;39.10;;;20.60;;
51523;SDS011;37610;51.790;21.590;2022-12-07T15:15:50;47.30;;;20.00;;
51523;SDS011;37610;51.790;21.590;2022-12-07T15:19:52;35.50;;;15.70;;
51523;SDS011;37610;51.790;21.590;2022-12-07T15:23:54;35.50;;;16.70;;
51523;SDS011;37610;51.790;21.590;2022-12-07T15:27:56;44.10;;;20.30;;
51523;SDS011;37610;51.790;21.590;2022-12-07T15:31:57;41.00;;;18.30;;
51523;SDS011;37610;51.790;21.590;2022-12-07T15:35:59;52.30;;;20.10;;
51523;SDS011;37610;51.790;21.590;2022-12-07T15:40:00;42.50;;;19.00;;
51523;SDS011;37610;51.790;21.590;2022-12-07T15:44:02;51.50;;;23.00;;
51523;SDS011;37610;51.790;21.590;2022-12-07T15:48:22;56.90;;;25.90;;
51523;SDS011;37610;51.790;21.590;2022-12-07T15:52:24;45.90;;;21.00;;
51523;SDS011;37610;51.790;21.590;2022-12-07T15:56:25;41.60;;;19.00;;
51523;SDS011;37610;51.790;21.590;2022-12-07T16:00:27;47.40;;;21.90;;
51523;SDS011;37610;51.790;21.590;2022-12-07T16:04:28;54.10;;;30.90;;
51523;SDS011;37610;51.790;21.590;2022-12-07T16:08:30;39.50;;;21.30;;
51523;SDS011;37610;51.790;21.590;2022-12-07T16:12:32;43.50;;;22.50;;
51523;SDS011;37610;51.790;21.590;2022-12-07T16:16:33;123.60;;;50.60;;
51523;SDS011;37610;51.790;21.590;2022-12-07T16:20:35;130.30;;;48.50;;
51523;SDS011;37610;51.790;21.590;2022-12-07T16:24:36;55.20;;;28.60;;
51523;SDS011;37610;51.790;21.590;2022-12-07T16:28:38;67.90;;;35.40;;
51523;SDS011;37610;51.790;21.590;2022-12-07T16:32:40;57.20;;;29.60;;
51523;SDS011;37610;51.790;21.590;2022-12-07T16:36:41;61.90;;;31.60;;
51523;SDS011;37610;51.790;21.590;2022-12-07T16:40:43;38.70;;;19.90;;
51523;SDS011;37610;51.790;21.590;2022-12-07T16:44:45;36.50;;;19.20;;
51523;SDS011;37610;51.790;21.590;2022-12-07T16:48:46;40.60;;;19.60;;
51523;SDS011;37610;51.790;21.590;2022-12-07T16:52:48;38.90;;;19.90;;
51523;SDS011;37610;51.790;21.590;2022-12-07T16:56:49;36.70;;;20.20;;
51523;SDS011;37610;51.790;21.590;2022-12-07T17:00:51;34.40;;;20.30;;
51523;SDS011;37610;51.790;21.590;2022-12-07T17:04:53;52.30;;;27.50;;
51523;SDS011;37610;51.790;21.590;2022-12-07T17:08:55;46.60;;;25.50;;
51523;SDS011;37610;51.790;21.590;2022-12-07T17:12:57;38.80;;;21.70;;
51523;SDS011;37610;51.790;21.590;2022-12-07T17:16:59;97.80;;;42.50;;
51523;SDS011;37610;51.790;21.590;2022-12-07T17:21:04;142.00;;;58.10;;
51523;SDS011;37610;51.790;21.590;2022-12-07T17:25:07;118.60;;;47.70;;
51523;SDS011;37610;51.790;21.590;2022-12-07T17:29:10;102.20;;;47.50;;
51523;SDS011;37610;51.790;21.590;2022-12-07T17:33:13;68.30;;;31.00;;
51523;SDS011;37610;51.790;21.590;2022-12-07T17:37:15;41.40;;;20.60;;
51523;SDS011;37610;51.790;21.590;2022-12-07T17:41:18;43.40;;;19.70;;
51523;SDS011;37610;51.790;21.590;2022-12-07T17:45:40;40.70;;;20.70;;
51523;SDS011;37610;51.790;21.590;2022-12-07T17:49:42;38.20;;;18.00;;
51523;SDS011;37610;51.790;21.590;2022-12-07T17:53:43;44.50;;;21.90;;
51523;SDS011;37610;51.790;21.590;2022-12-07T17:57:45;65.00;;;28.70;;
51523;SDS011;37610;51.790;21.590;2022-12-07T18:01:46;55.30;;;23.30;;
51523;SDS011;37610;51.790;21.590;2022-12-07T18:05:48;57.90;;;24.30;;
51523;SDS011;37610;51.790;21.590;2022-12-07T18:09:49;50.60;;;21.80;;
51523;SDS011;37610;51.790;21.590;2022-12-07T18:13:51;49.30;;;21.80;;
51523;SDS011;37610;51.790;21.590;2022-12-07T18:17:53;41.60;;;20.90;;
51523;SDS011;37610;51.790;21.590;2022-12-07T18:21:54;54.10;;;23.20;;
51523;SDS011;37610;51.790;21.590;2022-12-07T18:25:56;47.30;;;23.30;;
51523;SDS011;37610;51.790;21.590;2022-12-07T18:29:57;40.80;;;18.90;;
51523;SDS011;37610;51.790;21.590;2022-12-07T18:34:00;31.10;;;16.40;;
51523;SDS011;37610;51.790;21.590;2022-12-07T18:38:04;42.20;;;18.00;;
51523;SDS011;37610;51.790;21.590;2022-12-07T18:42:06;51.20;;;24.30;;
51523;SDS011;37610;51.790;21.590;2022-12-07T18:46:09;45.10;;;22.00;;
51523;SDS011;37610;51.790;21.590;2022-12-07T18:50:12;38.70;;;19.60;;
51523;SDS011;37610;51.790;21.590;2022-12-07T18:54:13;30.30;;;16.10;;
51523;SDS011;37610;51.790;21.590;2022-12-07T18:58:15;57.90;;;29.90;;
51523;SDS011;37610;51.790;21.590;2022-12-07T19:02:17;30.50;;;17.80;;
51523;SDS011;37610;51.790;21.590;2022-12-07T19:06:19;26.90;;;14.20;;
51523;SDS011;37610;51.790;21.590;2022-12-07T19:10:20;52.60;;;24.80;;
51523;SDS011;37610;51.790;21.590;2022-12-07T19:14:26;34.60;;;16.80;;
51523;SDS011;37610;51.790;21.590;2022-12-07T19:18:33;48.00;;;20.80;;
51523;SDS011;37610;51.790;21.590;2022-12-07T19:22:35;32.90;;;16.70;;
51523;SDS011;37610;51.790;21.590;2022-12-07T19:26:37;46.80;;;19.00;;
51523;SDS011;37610;51.790;21.590;2022-12-07T19:30:38;41.70;;;18.10;;
51523;SDS011;37610;51.790;21.590;2022-12-07T19:34:41;68.50;;;26.60;;
51523;SDS011;37610;51.790;21.590;2022-12-07T19:38:44;57.50;;;20.80;;
51523;SDS011;37610;51.790;21.590;2022-12-07T19:42:45;89.40;;;30.40;;
51523;SDS011;37610;51.790;21.590;2022-12-07T19:46:47;38.10;;;14.10;;
51523;SDS011;37610;51.790;21.590;2022-12-07T19:50:51;31.80;;;14.10;;
51523;SDS011;37610;51.790;21.590;2022-12-07T19:54:52;26.30;;;11.80;;
51523;SDS011;37610;51.790;21.590;2022-12-07T19:58:55;31.10;;;13.50;;
51523;SDS011;37610;51.790;21.590;2022-12-07T20:03:01;35.10;;;15.50;;
51523;SDS011;37610;51.790;21.590;2022-12-07T20:07:02;31.60;;;14.60;;
51523;SDS011;37610;51.790;21.590;2022-12-07T20:11:04;27.50;;;11.70;;
51523;SDS011;37610;51.790;21.590;2022-12-07T20:15:26;31.00;;;13.00;;
51523;SDS011;37610;51.790;21.590;2022-12-07T20:19:28;26.70;;;12.20;;
51523;SDS011;37610;51.790;21.590;2022-12-07T20:23:30;25.60;;;13.20;;
51523;SDS011;37610;51.790;21.590;2022-12-07T20:27:31;29.80;;;15.00;;
51523;SDS011;37610;51.790;21.590;2022-12-07T20:31:33;19.60;;;10.30;;
51523;SDS011;37610;51.790;21.590;2022-12-07T20:35:34;22.60;;;13.20;;
51523;SDS011;37610;51.790;21.590;2022-12-07T20:39:36;26.10;;;12.10;;
51523;SDS011;37610;51.790;21.590;2022-12-07T20:43:37;20.80;;;11.80;;
51523;SDS011;37610;51.790;21.590;2022-12-07T20:47:39;16.80;;;9.40;;
51523;SDS011;37610;51.790;21.590;2022-12-07T20:51:41;22.60;;;11.20;;
51523;SDS011;37610;51.790;21.590;2022-12-07T20:55:43;17.20;;;9.60;;
51523;SDS011;37610;51.790;21.590;2022-12-07T20:59:45;17.80;;;8.50;;
51523;SDS011;37610;51.790;21.590;2022-12-07T21:03:46;18.00;;;10.00;;
51523;SDS011;37610;51.790;21.590;2022-12-07T21:07:48;18.60;;;9.20;;
51523;SDS011;37610;51.790;21.590;2022-12-07T21:11:50;19.50;;;7.90;;
51523;SDS011;37610;51.790;21.590;2022-12-07T21:15:51;32.10;;;13.50;;
51523;SDS011;37610;51.790;21.590;2022-12-07T21:19:53;22.00;;;11.40;;
51523;SDS011;37610;51.790;21.590;2022-12-07T21:23:54;29.00;;;13.10;;
51523;SDS011;37610;51.790;21.590;2022-12-07T21:27:56;24.20;;;11.50;;
51523;SDS011;37610;51.790;21.590;2022-12-07T21:31:59;40.70;;;15.60;;
51523;SDS011;37610;51.790;21.590;2022-12-07T21:36:01;17.80;;;9.10;;
51523;SDS011;37610;51.790;21.590;2022-12-07T21:40:04;23.20;;;10.00;;
51523;SDS011;37610;51.790;21.590;2022-12-07T21:44:06;20.40;;;9.40;;
51523;SDS011;37610;51.790;21.590;2022-12-07T21:48:10;17.30;;;9.80;;
51523;SDS011;37610;51.790;21.590;2022-12-07T21:52:12;22.50;;;9.60;;
51523;SDS011;37610;51.790;21.590;2022-12-07T21:56:14;20.40;;;9.50;;
51523;SDS011;37610;51.790;21.590;2022-12-07T22:00:18;20.30;;;9.80;;
51523;SDS011;37610;51.790;21.590;2022-12-07T22:04:21;27.80;;;11.10;;
51523;SDS011;37610;51.790;21.590;2022-12-07T22:08:25;26.20;;;11.80;;
51523;SDS011;37610;51.790;21.590;2022-12-07T22:12:27;28.80;;;12.50;;
51523;SDS011;37610;51.790;21.590;2022-12-07T22:16:28;21.40;;;10.90;;
51523;SDS011;37610;51.790;21.590;2022-12-07T22:20:30;22.80;;;11.90;;
51523;SDS011;37610;51.790;21.590;2022-12-07T22:24:32;23.80;;;12.50;;
51523;SDS011;37610;51.790;21.590;2022-12-07T22:28:35;22.00;;;10.90;;
51523;SDS011;37610;51.790;21.590;2022-12-07T22:32:39;23.00;;;10.90;;
51523;SDS011;37610;51.790;21.590;2022-12-07T22:36:40;23.80;;;11.20;;
51523;SDS011;37610;51.790;21.590;2022-12-07T22:40:42;27.40;;;12.60;;
51523;SDS011;37610;51.790;21.590;2022-12-07T22:44:44;22.40;;;11.20;;
51523;SDS011;37610;51.790;21.590;2022-12-07T22:49:03;30.10;;;13.20;;
51523;SDS011;37610;51.790;21.590;2022-12-07T22:53:22;21.00;;;10.80;;
51523;SDS011;37610;51.790;21.590;2022-12-07T22:57:42;30.80;;;12.10;;
51523;SDS011;37610;51.790;21.590;2022-12-07T23:02:01;24.90;;;12.20;;
51523;SDS011;37610;51.790;21.590;2022-12-07T23:06:21;19.70;;;10.00;;
51523;SDS011;37610;51.790;21.590;2022-12-07T23:10:43;18.80;;;9.30;;
51523;SDS011;37610;51.790;21.590;2022-12-07T23:15:06;23.60;;;11.40;;
51523;SDS011;37610;51.790;21.590;2022-12-07T23:19:25;20.80;;;10.50;;
51523;SDS011;37610;51.790;21.590;2022-12-07T23:23:45;18.80;;;9.80;;
51523;SDS011;37610;51.790;21.590;2022-12-07T23:28:04;20.90;;;10.30;;
51523;SDS011;37610;51.790;21.590;2022-12-07T23:32:23;26.40;;;12.50;;
51523;SDS011;37610;51.790;21.590;2022-12-07T23:36:43;22.20;;;9.50;;
51523;SDS011;37610;51.790;21.590;2022-12-07T23:41:06;26.20;;;11.30;;
51523;SDS011;37610;51.790;21.590;2022-12-07T23:45:29;33.20;;;14.60;;
51523;SDS011;37610;51.790;21.590;2022-12-07T23:49:48;44.60;;;20.20;;
51523;SDS011;37610;51.790;21.590;2022-12-07T23:54:08;74.00;;;25.50;;
51523;SDS011;37610;51.790;21.590;2022-12-07T23:58:29;56.40;;;22.20;;
